createdAt,value
2023-04-22T00:01:56.917Z,19.72
2023-04-22T00:04:26.107Z,19.76
2023-04-22T00:07:02.685Z,19.78
2023-04-22T00:09:37.009Z,20.03
2023-04-22T00:12:16.573Z,20.00
2023-04-22T00:14:56.611Z,19.81
2023-04-22T00:17:28.711Z,20.36
2023-04-22T00:20:14.164Z,20.29
2023-04-22T00:22:48.348Z,20.36
2023-04-22T00:25:23.086Z,20.18
2023-04-22T00:28:11.448Z,20.03
2023-04-22T00:30:51.520Z,20.37
2023-04-22T00:33:32.477Z,20.86
2023-04-22T00:36:03.452Z,20.62
2023-04-22T00:38:39.159Z,20.66
2023-04-22T00:41:20.065Z,20.83
2023-04-22T00:43:55.150Z,20.98
2023-04-22T00:46:29.330Z,21.22
2023-04-22T00:49:03.277Z,21.20
2023-04-22T00:51:57.568Z,21.05
2023-04-22T00:54:37.917Z,21.56
2023-04-22T00:57:14.387Z,21.38
2023-04-22T01:00:05.020Z,20.99
2023-04-22T01:02:43.348Z,21.67
2023-04-22T01:05:18.656Z,21.56
2023-04-22T01:07:53.284Z,21.91
2023-04-22T01:10:24.019Z,22.11
2023-04-22T01:12:53.260Z,21.75
2023-04-22T01:15:31.937Z,21.87
2023-04-22T01:18:05.013Z,21.80
2023-04-22T01:20:39.084Z,21.90
2023-04-22T01:23:19.286Z,21.84
2023-04-22T01:25:59.776Z,21.76
2023-04-22T01:28:33.296Z,22.52
2023-04-22T01:31:02.698Z,22.56
2023-04-22T01:33:38.925Z,22.30
2023-04-22T01:36:11.000Z,22.77
2023-04-22T01:38:47.570Z,22.42
2023-04-22T01:41:21.671Z,22.38
2023-04-22T01:43:52.001Z,22.70
2023-04-22T01:46:31.779Z,22.54
2023-04-22T01:49:04.462Z,22.69
2023-04-22T01:51:36.807Z,22.48
2023-04-22T01:54:20.340Z,21.93
2023-04-22T01:56:56.212Z,22.39
2023-04-22T01:59:27.870Z,22.21
2023-04-22T02:02:00.759Z,22.45
2023-04-22T02:04:34.264Z,22.66
2023-04-22T02:07:22.171Z,22.20
2023-04-22T02:09:55.573Z,22.19
2023-04-22T02:12:35.539Z,22.29
2023-04-22T02:15:11.476Z,22.16
2023-04-22T02:17:44.115Z,22.72
2023-04-22T02:20:15.676Z,22.47
2023-04-22T02:22:57.275Z,22.37
2023-04-22T02:25:37.254Z,22.24
2023-04-22T02:28:10.397Z,22.75
2023-04-22T02:30:55.040Z,22.47
2023-04-22T02:33:37.269Z,21.47
2023-04-22T02:36:21.677Z,22.22
2023-04-22T02:38:57.188Z,22.63
2023-04-22T02:41:32.965Z,22.43
2023-04-22T02:44:17.379Z,21.94
2023-04-22T02:46:54.025Z,22.15
2023-04-22T02:49:33.152Z,22.60
2023-04-22T02:52:13.077Z,22.62
2023-04-22T02:54:49.903Z,22.83
2023-04-22T02:57:38.000Z,22.35
2023-04-22T03:00:13.136Z,22.90
2023-04-22T03:02:52.182Z,22.46
2023-04-22T03:05:21.703Z,22.92
2023-04-22T03:07:50.974Z,22.96
2023-04-22T03:10:25.030Z,22.82
2023-04-22T03:12:56.024Z,22.95
2023-04-22T03:15:30.138Z,23.36
2023-04-22T03:18:04.996Z,23.14
2023-04-22T03:20:39.799Z,23.13
2023-04-22T03:23:13.814Z,23.28
2023-04-22T03:25:51.451Z,23.42
2023-04-22T03:28:28.638Z,23.37
2023-04-22T03:31:15.814Z,23.00
2023-04-22T03:33:52.180Z,23.81
2023-04-22T03:36:34.380Z,23.40
2023-04-22T03:39:13.323Z,23.76
2023-04-22T03:41:49.871Z,24.15
2023-04-22T03:44:29.629Z,24.02
2023-04-22T03:47:02.827Z,24.00
2023-04-22T03:49:40.901Z,24.10
2023-04-22T03:52:12.484Z,24.20
2023-04-22T03:54:50.422Z,22.80
2023-04-22T03:57:30.171Z,23.42
2023-04-22T04:00:04.575Z,23.63
2023-04-22T04:02:36.627Z,23.77
2023-04-22T04:05:12.539Z,23.48
2023-04-22T04:07:44.752Z,23.17
2023-04-22T04:10:15.713Z,23.38
2023-04-22T04:12:47.963Z,23.76
2023-04-22T04:15:25.745Z,23.70
2023-04-22T04:18:01.559Z,23.95
2023-04-22T04:20:41.740Z,23.98
2023-04-22T04:23:16.806Z,24.01
2023-04-22T04:25:56.138Z,23.95
2023-04-22T04:28:35.382Z,23.64
2023-04-22T04:31:07.620Z,23.44
2023-04-22T04:33:42.690Z,23.14
2023-04-22T04:36:45.122Z,22.40
2023-04-22T04:39:25.622Z,21.68
2023-04-22T04:42:09.896Z,21.83
2023-04-22T04:44:48.777Z,21.32
2023-04-22T04:47:29.326Z,20.97
2023-04-22T04:50:04.585Z,20.86
2023-04-22T04:52:42.075Z,19.09
2023-04-22T04:55:24.607Z,18.85
2023-04-22T04:58:06.420Z,18.09
2023-04-22T05:00:46.141Z,17.30
2023-04-22T05:03:16.914Z,17.31
2023-04-22T05:05:57.573Z,16.38
2023-04-22T05:08:29.397Z,15.62
2023-04-22T05:11:01.704Z,15.35
2023-04-22T05:13:46.321Z,15.34
2023-04-22T05:16:29.967Z,13.59
2023-04-22T05:18:59.799Z,13.55
2023-04-22T05:21:28.337Z,12.96
2023-04-22T05:23:56.554Z,12.43
2023-04-22T05:26:25.230Z,12.43
2023-04-22T05:28:56.555Z,11.80
2023-04-22T05:31:25.714Z,12.06
2023-04-22T05:33:53.991Z,11.60
2023-04-22T05:36:23.929Z,11.28
2023-04-22T05:38:52.193Z,11.35
2023-04-22T05:41:20.815Z,10.97
2023-04-22T05:43:49.020Z,10.78
2023-04-22T05:46:17.717Z,10.16
2023-04-22T05:48:45.934Z,10.02
2023-04-22T05:51:14.409Z,9.70
2023-04-22T05:53:44.017Z,9.00
2023-04-22T05:56:12.624Z,8.94
2023-04-22T05:58:41.086Z,8.55
2023-04-22T06:01:10.120Z,8.19
2023-04-22T06:03:38.589Z,7.94
2023-04-22T06:06:07.907Z,7.88
2023-04-22T06:08:36.179Z,7.66
2023-04-22T06:11:06.337Z,7.73
2023-04-22T06:13:34.492Z,7.67
2023-04-22T06:16:05.240Z,7.57
2023-04-22T06:18:34.273Z,7.51
2023-04-22T06:21:03.620Z,6.82
2023-04-22T06:23:31.765Z,6.69
2023-04-22T06:26:01.671Z,5.63
2023-04-22T06:28:31.862Z,5.70
2023-04-22T06:31:00.457Z,5.81
2023-04-22T06:33:28.881Z,5.76
2023-04-22T06:35:57.515Z,5.46
2023-04-22T06:38:25.805Z,5.41
2023-04-22T06:40:54.238Z,4.90
2023-04-22T06:43:22.516Z,4.33
2023-04-22T06:45:52.426Z,4.59
2023-04-22T06:48:20.704Z,4.13
2023-04-22T06:50:49.279Z,3.69
2023-04-22T06:53:17.658Z,3.76
2023-04-22T06:55:46.364Z,3.42
2023-04-22T06:58:14.553Z,3.22
2023-04-22T07:00:43.664Z,2.95
2023-04-22T07:03:13.421Z,2.91
2023-04-22T07:05:41.982Z,2.39
2023-04-22T07:08:10.239Z,1.77
2023-04-22T07:10:38.690Z,1.81
2023-04-22T07:13:07.008Z,1.86
2023-04-22T07:15:38.325Z,2.44
2023-04-22T07:18:06.917Z,2.32
2023-04-22T07:20:36.924Z,2.21
2023-04-22T07:23:05.222Z,1.97
2023-04-22T07:25:33.676Z,1.52
2023-04-22T07:28:01.842Z,1.97
2023-04-22T07:30:30.368Z,1.79
2023-04-22T07:32:58.700Z,1.71
2023-04-22T07:35:28.714Z,1.47
2023-04-22T07:37:58.379Z,1.64
2023-04-22T07:40:26.878Z,1.47
2023-04-22T07:42:55.277Z,1.10
2023-04-22T07:45:23.916Z,0.86
2023-04-22T07:47:52.142Z,1.29
2023-04-22T07:50:20.861Z,1.90
2023-04-22T07:52:49.093Z,2.44
2023-04-22T07:55:19.300Z,1.84
2023-04-22T07:57:47.666Z,2.22
2023-04-22T08:00:19.234Z,1.78
2023-04-22T08:02:47.644Z,1.10
2023-04-22T08:05:16.353Z,0.24
2023-04-22T08:07:44.772Z,0.15
2023-04-22T08:10:13.541Z,0.00
2023-04-22T08:12:44.191Z,0.00
2023-04-22T08:15:13.896Z,0.00
2023-04-22T08:17:42.331Z,0.00
2023-04-22T08:20:11.480Z,0.00
2023-04-22T08:22:40.058Z,0.00
2023-04-22T08:25:09.809Z,0.00
2023-04-22T08:27:39.342Z,0.00
2023-04-22T08:30:12.434Z,0.00
2023-04-22T08:32:41.348Z,0.00
2023-04-22T08:35:11.748Z,0.00
2023-04-22T08:37:40.637Z,0.00
2023-04-22T08:40:10.354Z,0.00
2023-04-22T08:42:38.745Z,0.00
2023-04-22T08:45:09.943Z,0.00
2023-04-22T08:47:39.027Z,0.00
2023-04-22T08:50:09.821Z,0.00
2023-04-22T08:52:38.948Z,0.00
2023-04-22T08:55:08.437Z,0.00
2023-04-22T08:57:37.859Z,0.06
2023-04-22T09:00:08.906Z,1.18
2023-04-22T09:02:39.430Z,0.00
2023-04-22T09:05:11.326Z,0.30
2023-04-22T09:07:41.025Z,0.14
2023-04-22T09:10:12.073Z,0.00
2023-04-22T09:12:42.009Z,0.00
2023-04-22T09:15:10.874Z,0.00
2023-04-22T09:17:41.426Z,0.00
2023-04-22T09:20:10.575Z,0.00
2023-04-22T09:22:40.039Z,0.00
2023-04-22T09:25:09.250Z,0.00
2023-04-22T09:27:37.489Z,0.00
2023-04-22T09:30:10.026Z,0.00
2023-04-22T09:32:38.293Z,0.00
2023-04-22T09:35:08.892Z,0.00
2023-04-22T09:37:48.524Z,0.00
2023-04-22T09:40:19.875Z,0.00
2023-04-22T09:42:51.219Z,0.00
2023-04-22T09:45:30.249Z,0.00
2023-04-22T09:48:01.301Z,0.00
2023-04-22T09:50:31.526Z,0.00
2023-04-22T09:53:01.834Z,0.00
2023-04-22T09:55:32.355Z,0.00
2023-04-22T09:58:07.218Z,0.00
2023-04-22T10:00:37.976Z,0.00
2023-04-22T10:03:08.927Z,0.00
2023-04-22T10:05:41.485Z,0.00
2023-04-22T10:08:10.951Z,0.00
2023-04-22T10:10:40.198Z,0.00
2023-04-22T10:13:09.338Z,0.00
2023-04-22T10:15:40.207Z,0.00
2023-04-22T10:18:11.660Z,0.00
2023-04-22T10:20:42.774Z,0.00
2023-04-22T10:23:16.437Z,0.00
2023-04-22T10:25:49.264Z,0.00
2023-04-22T10:28:18.662Z,0.00
2023-04-22T10:30:47.756Z,0.00
2023-04-22T10:33:39.211Z,0.00
2023-04-22T10:36:11.815Z,0.00
2023-04-22T10:38:41.460Z,0.00
2023-04-22T10:41:15.967Z,0.00
2023-04-22T10:43:45.650Z,0.00
2023-04-22T10:47:02.957Z,0.00
2023-04-22T10:49:32.041Z,0.00
2023-04-22T10:52:04.121Z,0.00
2023-04-22T10:54:57.323Z,0.00
2023-04-22T10:57:40.319Z,0.00
2023-04-22T11:00:23.322Z,0.00
2023-04-22T11:02:59.230Z,0.00
2023-04-22T11:05:29.099Z,0.00
2023-04-22T11:08:03.003Z,0.00
2023-04-22T11:10:42.378Z,0.00
2023-04-22T11:13:15.097Z,0.00
2023-04-22T11:15:44.668Z,0.00
2023-04-22T11:18:18.630Z,0.00
2023-04-22T11:20:48.546Z,0.10
2023-04-22T11:23:26.569Z,0.00
2023-04-22T11:25:58.731Z,0.00
2023-04-22T11:28:27.293Z,0.00
2023-04-22T11:31:02.855Z,0.00
2023-04-22T11:33:31.424Z,0.30
2023-04-22T11:35:59.573Z,1.38
2023-04-22T11:38:29.492Z,2.56
2023-04-22T11:40:58.543Z,3.09
2023-04-22T11:43:27.279Z,3.43
2023-04-22T11:45:57.268Z,3.84
2023-04-22T11:48:26.027Z,4.58
2023-04-22T11:51:09.149Z,4.73
2023-04-22T11:53:41.355Z,4.83
2023-04-22T11:56:09.608Z,4.95
2023-04-22T11:58:40.888Z,4.86
2023-04-22T12:01:13.958Z,4.72
2023-04-22T12:03:42.920Z,5.07
2023-04-22T12:06:11.384Z,5.48
2023-04-22T12:08:43.702Z,5.88
2023-04-22T12:11:13.063Z,5.87
2023-04-22T12:13:46.923Z,5.75
2023-04-22T12:16:16.734Z,6.10
2023-04-22T12:18:50.693Z,6.28
2023-04-22T12:21:20.402Z,6.93
2023-04-22T12:23:51.684Z,6.74
2023-04-22T12:26:21.775Z,6.61
2023-04-22T12:28:52.303Z,7.08
2023-04-22T12:31:21.428Z,7.04
2023-04-22T12:33:50.261Z,7.08
2023-04-22T12:36:20.930Z,6.87
2023-04-22T12:38:51.402Z,7.22
2023-04-22T12:41:19.728Z,7.21
2023-04-22T12:43:48.373Z,6.73
2023-04-22T12:46:16.599Z,6.70
2023-04-22T12:48:45.151Z,6.70
2023-04-22T12:51:13.372Z,6.32
2023-04-22T12:53:42.165Z,6.18
2023-04-22T12:56:11.871Z,6.31
2023-04-22T12:58:40.461Z,6.52
2023-04-22T13:01:08.694Z,6.69
2023-04-22T13:03:37.283Z,6.61
2023-04-22T13:06:05.631Z,6.74
2023-04-22T13:08:34.127Z,6.81
2023-04-22T13:11:02.277Z,6.82
2023-04-22T13:13:32.338Z,6.64
2023-04-22T13:16:00.630Z,6.45
2023-04-22T13:18:29.103Z,6.66
2023-04-22T13:20:57.439Z,5.91
2023-04-22T13:23:29.917Z,5.97
2023-04-22T13:25:58.130Z,5.96
2023-04-22T13:28:26.936Z,6.27
2023-04-22T13:30:57.127Z,6.08
2023-04-22T13:33:25.590Z,5.52
2023-04-22T13:35:53.707Z,5.59
2023-04-22T13:38:22.211Z,5.89
2023-04-22T13:40:52.381Z,5.63
2023-04-22T13:43:21.030Z,6.17
2023-04-22T13:45:49.353Z,6.14
2023-04-22T13:48:19.273Z,6.26
2023-04-22T13:50:47.607Z,6.07
2023-04-22T13:53:16.317Z,6.39
2023-04-22T13:55:44.654Z,6.18
2023-04-22T13:58:13.381Z,6.31
2023-04-22T14:00:41.530Z,6.49
2023-04-22T14:03:10.085Z,6.20
2023-04-22T14:05:39.729Z,5.97
2023-04-22T14:08:08.211Z,5.91
2023-04-22T14:10:36.391Z,6.23
2023-04-22T14:13:04.934Z,6.17
2023-04-22T14:15:33.223Z,6.37
2023-04-22T14:18:01.699Z,6.07
2023-04-22T14:20:29.947Z,6.17
2023-04-22T14:23:00.986Z,6.09
2023-04-22T14:25:29.148Z,6.15
2023-04-22T14:27:57.598Z,6.21
2023-04-22T14:30:25.903Z,6.21
2023-04-22T14:32:54.498Z,6.15
2023-04-22T14:35:23.065Z,6.01
2023-04-22T14:37:51.565Z,6.12
2023-04-22T14:40:23.178Z,6.53
2023-04-22T14:42:51.750Z,6.40
2023-04-22T14:45:20.045Z,5.72
2023-04-22T14:47:48.591Z,6.02
2023-04-22T14:50:16.876Z,5.79
2023-04-22T14:52:45.562Z,5.86
2023-04-22T14:55:22.373Z,5.55
2023-04-22T14:57:57.750Z,5.37
2023-04-22T15:00:26.826Z,5.42
2023-04-22T15:02:56.111Z,5.65
2023-04-22T15:05:24.727Z,5.65
2023-04-22T15:07:53.306Z,5.38
2023-04-22T15:10:21.871Z,5.40
2023-04-22T15:12:50.596Z,5.39
2023-04-22T15:15:20.410Z,5.52
2023-04-22T15:17:48.962Z,5.63
2023-04-22T15:20:17.206Z,5.90
2023-04-22T15:22:45.867Z,5.59
2023-04-22T15:25:15.470Z,5.30
2023-04-22T15:27:45.060Z,4.96
2023-04-22T15:30:13.479Z,5.59
2023-04-22T15:32:43.368Z,5.50
2023-04-22T15:35:12.055Z,5.61
2023-04-22T15:37:40.703Z,5.64
2023-04-22T15:40:10.101Z,5.70
2023-04-22T15:42:38.740Z,5.88
2023-04-22T15:45:08.044Z,5.86
2023-04-22T15:47:37.058Z,5.84
2023-04-22T15:50:09.743Z,5.80
2023-04-22T15:52:39.146Z,5.78
2023-04-22T15:55:10.219Z,5.70
2023-04-22T15:57:38.485Z,5.12
2023-04-22T16:00:12.369Z,5.36
2023-04-22T16:02:42.632Z,5.57
2023-04-22T16:05:14.159Z,5.37
2023-04-22T16:07:42.710Z,5.35
2023-04-22T16:10:11.999Z,5.54
2023-04-22T16:12:40.552Z,5.83
2023-04-22T16:15:10.696Z,5.48
2023-04-22T16:17:39.549Z,5.58
2023-04-22T16:20:09.674Z,5.71
2023-04-22T16:22:39.658Z,5.43
2023-04-22T16:25:09.724Z,5.54
2023-04-22T16:27:38.391Z,5.68
2023-04-22T16:30:07.690Z,6.29
2023-04-22T16:32:36.338Z,6.40
2023-04-22T16:35:04.776Z,6.29
2023-04-22T16:37:34.208Z,6.44
2023-04-22T16:40:04.564Z,6.48
2023-04-22T16:42:33.233Z,6.61
2023-04-22T16:45:01.404Z,6.84
2023-04-22T16:47:29.960Z,6.94
2023-04-22T16:49:58.280Z,7.81
2023-04-22T16:52:26.771Z,7.59
2023-04-22T16:54:55.000Z,7.44
2023-04-22T16:57:24.918Z,7.26
2023-04-22T16:59:53.083Z,7.31
2023-04-22T17:02:21.797Z,7.20
2023-04-22T17:04:50.154Z,6.90
2023-04-22T17:07:18.714Z,7.09
2023-04-22T17:09:48.816Z,6.89
2023-04-22T17:12:17.389Z,7.62
2023-04-22T17:14:47.043Z,7.60
2023-04-22T17:17:15.555Z,8.13
2023-04-22T17:19:44.080Z,8.12
2023-04-22T17:22:12.845Z,8.26
2023-04-22T17:24:41.775Z,8.42
2023-04-22T17:27:10.376Z,8.37
2023-04-22T17:29:38.650Z,8.30
2023-04-22T17:32:08.651Z,8.28
2023-04-22T17:34:36.890Z,8.82
2023-04-22T17:37:05.440Z,8.94
2023-04-22T17:39:33.604Z,8.86
2023-04-22T17:42:02.617Z,8.83
2023-04-22T17:44:31.737Z,8.92
2023-04-22T17:47:00.419Z,9.03
2023-04-22T17:49:32.476Z,8.91
2023-04-22T17:52:01.041Z,9.27
2023-04-22T17:54:29.483Z,9.25
2023-04-22T17:56:58.070Z,9.57
2023-04-22T17:59:30.041Z,9.44
2023-04-22T18:01:59.662Z,9.58
2023-04-22T18:04:33.505Z,9.78
2023-04-22T18:07:02.036Z,9.89
2023-04-22T18:09:34.366Z,10.13
2023-04-22T18:12:11.446Z,10.30
2023-04-22T18:14:41.802Z,10.89
2023-04-22T18:17:10.475Z,11.69
2023-04-22T18:19:48.765Z,11.52
2023-04-22T18:22:19.460Z,11.83
2023-04-22T18:24:50.409Z,12.08
2023-04-22T18:27:21.659Z,11.78
2023-04-22T18:29:54.582Z,11.85
2023-04-22T18:32:25.859Z,12.36
2023-04-22T18:34:55.646Z,12.31
2023-04-22T18:37:24.910Z,11.94
2023-04-22T18:40:00.719Z,11.55
2023-04-22T18:42:29.925Z,12.50
2023-04-22T18:44:58.177Z,12.54
2023-04-22T18:47:29.782Z,12.31
2023-04-22T18:50:00.334Z,12.25
2023-04-22T18:52:28.838Z,12.67
2023-04-22T18:55:01.306Z,12.14
2023-04-22T18:57:29.878Z,12.33
2023-04-22T18:59:58.161Z,12.95
2023-04-22T19:05:04.412Z,12.98
2023-04-22T19:07:38.461Z,13.08
2023-04-22T19:10:10.344Z,13.10
2023-04-22T19:12:38.988Z,13.12
2023-04-22T19:15:08.554Z,12.97
2023-04-22T19:17:38.100Z,12.74
2023-04-22T19:20:09.216Z,12.49
2023-04-22T19:22:37.534Z,12.11
2023-04-22T19:25:07.078Z,13.00
2023-04-22T19:27:35.726Z,13.10
2023-04-22T19:30:04.349Z,12.85
2023-04-22T19:32:32.977Z,13.34
2023-04-22T19:35:03.879Z,12.91
2023-04-22T19:37:34.230Z,12.74
2023-04-22T19:40:02.429Z,13.25
2023-04-22T19:42:31.073Z,13.12
2023-04-22T19:44:59.652Z,13.55
2023-04-22T19:47:28.600Z,13.41
2023-04-22T19:49:57.514Z,13.27
2023-04-22T19:52:26.216Z,13.07
2023-04-22T19:54:58.868Z,13.11
2023-04-22T19:57:27.746Z,13.51
2023-04-22T19:59:56.314Z,13.46
2023-04-22T20:02:26.404Z,13.64
2023-04-22T20:04:55.129Z,13.71
2023-04-22T20:07:24.105Z,13.79
2023-04-22T20:09:52.729Z,13.55
2023-04-22T20:12:23.065Z,13.59
2023-04-22T20:14:51.404Z,13.89
2023-04-22T20:17:20.413Z,13.88
2023-04-22T20:19:50.331Z,14.11
2023-04-22T20:22:19.091Z,14.22
2023-04-22T20:24:48.941Z,13.68
2023-04-22T20:27:17.903Z,13.94
2023-04-22T20:29:49.651Z,14.21
2023-04-22T20:32:18.291Z,14.42
2023-04-22T20:34:46.994Z,14.16
2023-04-22T20:37:16.265Z,14.49
2023-04-22T20:39:44.770Z,14.28
2023-04-22T20:42:13.678Z,14.63
2023-04-22T20:44:42.027Z,14.74
2023-04-22T20:47:12.400Z,14.87
2023-04-22T20:49:41.223Z,14.60
2023-04-22T20:52:10.032Z,15.13
2023-04-22T20:54:38.546Z,15.15
2023-04-22T20:57:08.107Z,15.17
2023-04-22T20:59:37.022Z,15.14
2023-04-22T21:02:06.683Z,15.31
2023-04-22T21:04:37.203Z,15.24
2023-04-22T21:07:07.317Z,15.26
2023-04-22T21:09:36.241Z,15.28
2023-04-22T21:12:05.485Z,15.19
2023-04-22T21:14:34.117Z,15.57
2023-04-22T21:17:05.319Z,15.54
2023-04-22T21:19:34.537Z,15.87
2023-04-22T21:22:06.346Z,15.37
2023-04-22T21:24:35.124Z,15.50
2023-04-22T21:27:04.217Z,15.48
2023-04-22T21:29:32.907Z,15.54
2023-04-22T21:32:09.346Z,15.76
2023-04-22T21:34:38.224Z,15.79
2023-04-22T21:37:09.038Z,15.68
2023-04-22T21:39:37.534Z,16.17
2023-04-22T21:42:08.676Z,16.08
2023-04-22T21:44:38.193Z,15.99
2023-04-22T21:47:06.974Z,15.91
2023-04-22T21:49:35.291Z,16.02
2023-04-22T21:52:03.907Z,15.95
2023-04-22T21:54:33.837Z,15.84
2023-04-22T21:57:02.279Z,15.72
2023-04-22T21:59:31.543Z,15.85
2023-04-22T22:01:59.907Z,15.93
2023-04-22T22:04:28.598Z,15.79
2023-04-22T22:06:56.974Z,16.18
2023-04-22T22:09:26.545Z,15.85
2023-04-22T22:11:56.303Z,16.03
2023-04-22T22:14:25.401Z,16.08
2023-04-22T22:16:54.311Z,16.14
2023-04-22T22:19:22.850Z,16.20
2023-04-22T22:21:51.385Z,16.23
2023-04-22T22:24:20.537Z,16.26
2023-04-22T22:26:48.790Z,16.27
2023-04-22T22:29:18.584Z,16.06
2023-04-22T22:31:47.180Z,16.29
2023-04-22T22:34:15.642Z,16.43
2023-04-22T22:36:43.918Z,16.49
2023-04-22T22:39:14.496Z,16.55
2023-04-22T22:41:44.032Z,16.68
2023-04-22T22:44:12.702Z,16.48
2023-04-22T22:46:42.368Z,16.68
2023-04-22T22:49:11.174Z,16.71
2023-04-22T22:51:39.450Z,17.08
2023-04-22T22:54:08.134Z,17.03
2023-04-22T22:56:36.370Z,17.14
2023-04-22T22:59:04.790Z,17.01
2023-04-22T23:01:33.227Z,17.18
2023-04-22T23:04:03.339Z,16.92
2023-04-22T23:06:31.993Z,17.08
2023-04-22T23:09:00.418Z,17.16
2023-04-22T23:11:28.766Z,17.20
2023-04-22T23:13:57.991Z,17.05
2023-04-22T23:16:26.385Z,17.05
2023-04-22T23:18:56.335Z,16.94
2023-04-22T23:21:26.408Z,16.86
2023-04-22T23:23:56.080Z,17.12
2023-04-22T23:26:24.880Z,16.78
2023-04-22T23:28:53.710Z,17.05
2023-04-22T23:31:24.252Z,17.01
2023-04-22T23:33:53.316Z,16.85
2023-04-22T23:36:23.347Z,16.43
2023-04-22T23:38:53.403Z,16.41
2023-04-22T23:41:21.636Z,16.69
2023-04-22T23:43:50.146Z,16.33
2023-04-22T23:46:18.911Z,16.32
2023-04-22T23:48:47.616Z,16.44
2023-04-22T23:51:16.925Z,16.30
2023-04-22T23:53:45.898Z,16.25
2023-04-22T23:56:20.243Z,16.11
2023-04-22T23:58:49.340Z,16.30
